createdAt,value
2018-07-04T00:02:40.554Z,21.70
2018-07-04T00:05:27.177Z,21.70
2018-07-04T00:08:13.516Z,21.60
2018-07-04T00:11:00.116Z,21.70
2018-07-04T00:13:46.749Z,21.60
2018-07-04T00:16:33.288Z,21.60
2018-07-04T00:19:19.697Z,21.60
2018-07-04T00:22:06.384Z,21.50
2018-07-04T00:24:52.841Z,21.40
2018-07-04T00:27:39.397Z,21.40
2018-07-04T00:30:25.919Z,21.40
2018-07-04T00:33:12.330Z,21.30
2018-07-04T00:35:58.781Z,21.30
2018-07-04T00:38:45.315Z,21.30
2018-07-04T00:41:31.921Z,21.20
2018-07-04T00:44:18.646Z,21.10
2018-07-04T00:47:05.108Z,20.90
2018-07-04T00:49:51.812Z,21.00
2018-07-04T00:52:38.127Z,21.00
2018-07-04T00:55:24.754Z,21.00
2018-07-04T00:58:11.328Z,20.90
2018-07-04T01:00:57.893Z,20.90
2018-07-04T01:03:44.416Z,20.90
2018-07-04T01:06:31.248Z,20.90
2018-07-04T01:09:17.929Z,20.90
2018-07-04T01:12:04.560Z,21.00
2018-07-04T01:14:51.250Z,20.90
2018-07-04T01:17:37.669Z,20.90
2018-07-04T01:20:24.220Z,20.90
2018-07-04T01:23:10.892Z,20.80
2018-07-04T01:25:57.520Z,20.80
2018-07-04T01:28:48.071Z,20.80
2018-07-04T01:31:34.382Z,20.80
2018-07-04T01:34:22.222Z,20.80
2018-07-04T01:37:09.693Z,20.80
2018-07-04T01:39:56.094Z,20.70
2018-07-04T01:42:47.108Z,20.70
2018-07-04T01:45:33.595Z,20.70
2018-07-04T01:48:20.100Z,20.70
2018-07-04T01:51:07.644Z,20.70
2018-07-04T01:53:54.157Z,20.70
2018-07-04T01:56:40.736Z,20.60
2018-07-04T01:59:27.113Z,20.60
2018-07-04T02:02:13.649Z,20.60
2018-07-04T02:05:00.149Z,20.60
2018-07-04T02:07:46.726Z,20.50
2018-07-04T02:10:33.318Z,20.40
2018-07-04T02:13:20.846Z,20.60
2018-07-04T02:16:07.249Z,20.50
2018-07-04T02:18:53.953Z,20.50
2018-07-04T02:21:40.352Z,20.40
2018-07-04T02:24:26.936Z,20.40
2018-07-04T02:27:13.418Z,20.30
2018-07-04T02:29:59.999Z,20.40
2018-07-04T02:32:46.376Z,20.40
2018-07-04T02:35:32.776Z,20.30
2018-07-04T02:38:19.279Z,20.30
2018-07-04T02:41:05.825Z,20.30
2018-07-04T02:43:52.330Z,20.20
2018-07-04T02:46:40.562Z,20.30
2018-07-04T02:49:27.064Z,20.30
2018-07-04T02:52:13.535Z,20.20
2018-07-04T02:55:00.072Z,20.20
2018-07-04T02:57:48.384Z,20.20
2018-07-04T03:00:34.783Z,20.20
2018-07-04T03:03:21.253Z,20.20
2018-07-04T03:06:07.774Z,20.10
2018-07-04T03:08:54.405Z,20.10
2018-07-04T03:11:40.791Z,20.10
2018-07-04T03:14:27.070Z,20.10
2018-07-04T03:17:13.637Z,20.10
2018-07-04T03:20:00.315Z,20.20
2018-07-04T03:22:46.758Z,20.10
2018-07-04T03:25:33.348Z,20.10
2018-07-04T03:28:19.941Z,20.20
2018-07-04T03:31:06.798Z,20.10
2018-07-04T03:33:53.403Z,20.10
2018-07-04T03:36:39.857Z,20.20
2018-07-04T03:39:26.433Z,20.20
2018-07-04T03:42:13.099Z,20.10
2018-07-04T03:44:59.738Z,20.10
2018-07-04T03:47:47.517Z,20.10
2018-07-04T03:55:56.900Z,20.10
2018-07-04T03:58:43.488Z,20.10
2018-07-04T04:01:30.029Z,20.20
2018-07-04T04:04:16.604Z,20.20
2018-07-04T04:07:03.424Z,20.30
2018-07-04T04:09:49.814Z,20.30
2018-07-04T04:12:36.346Z,20.30
2018-07-04T04:15:22.965Z,20.40
2018-07-04T04:18:09.575Z,20.40
2018-07-04T04:20:56.133Z,20.50
2018-07-04T04:23:42.450Z,20.50
2018-07-04T04:26:29.866Z,20.50
2018-07-04T04:29:16.355Z,20.60
2018-07-04T04:32:03.044Z,20.70
2018-07-04T04:34:49.649Z,20.80
2018-07-04T04:37:37.934Z,20.90
2018-07-04T04:40:24.550Z,21.00
2018-07-04T04:43:11.348Z,21.10
2018-07-04T04:45:57.745Z,21.20
2018-07-04T04:48:44.288Z,21.30
2018-07-04T04:51:30.897Z,21.50
2018-07-04T04:54:17.448Z,21.60
2018-07-04T04:57:04.234Z,21.50
2018-07-04T04:59:50.869Z,21.70
2018-07-04T05:02:37.387Z,21.80
2018-07-04T05:05:24.369Z,21.80
2018-07-04T05:08:10.827Z,21.90
2018-07-04T05:10:57.454Z,22.10
2018-07-04T05:13:44.111Z,22.20
2018-07-04T05:16:30.922Z,22.40
2018-07-04T05:19:17.460Z,22.50
2018-07-04T05:22:04.035Z,22.60
2018-07-04T05:24:50.425Z,22.80
2018-07-04T05:27:37.217Z,23.00
2018-07-04T05:30:23.782Z,23.00
2018-07-04T05:33:10.344Z,23.10
2018-07-04T05:35:56.742Z,23.10
2018-07-04T05:38:43.854Z,23.10
2018-07-04T05:41:30.282Z,23.10
2018-07-04T05:44:16.891Z,23.10
2018-07-04T05:47:04.738Z,23.10
2018-07-04T05:49:52.630Z,23.10
2018-07-04T05:52:38.963Z,23.10
2018-07-04T05:55:26.249Z,23.10
2018-07-04T05:58:12.769Z,23.00
2018-07-04T06:00:59.777Z,23.00
2018-07-04T06:03:46.176Z,23.00
2018-07-04T06:06:32.928Z,22.90
2018-07-04T06:09:19.385Z,22.90
2018-07-04T06:12:06.095Z,22.90
2018-07-04T06:14:53.647Z,23.00
2018-07-04T06:17:40.295Z,23.00
2018-07-04T06:20:26.846Z,23.10
2018-07-04T06:23:13.550Z,23.30
2018-07-04T06:26:00.062Z,23.50
2018-07-04T06:28:47.094Z,23.60
2018-07-04T06:31:33.677Z,23.80
2018-07-04T06:34:20.207Z,23.90
2018-07-04T06:37:15.550Z,24.10
2018-07-04T06:39:49.701Z,24.30
2018-07-04T06:42:18.128Z,24.50
2018-07-04T06:44:46.469Z,24.50
2018-07-04T06:47:14.576Z,24.90
2018-07-04T06:49:42.656Z,25.10
2018-07-04T06:52:10.752Z,25.30
2018-07-04T06:54:38.953Z,25.60
2018-07-04T06:57:07.034Z,25.80
2018-07-04T06:59:35.164Z,26.00
2018-07-04T07:02:09.013Z,26.10
2018-07-04T07:04:50.294Z,26.20
2018-07-04T07:07:36.890Z,26.20
2018-07-04T07:10:23.322Z,26.40
2018-07-04T07:13:09.875Z,26.60
2018-07-04T07:15:56.599Z,26.60
2018-07-04T07:18:42.989Z,27.10
2018-07-04T07:21:29.460Z,27.30
2018-07-04T07:24:16.020Z,27.60
2018-07-04T07:27:02.739Z,27.70
2018-07-04T07:29:49.290Z,27.70
2018-07-04T07:32:35.899Z,27.90
2018-07-04T07:35:22.624Z,28.00
2018-07-04T07:38:09.189Z,28.00
2018-07-04T07:40:55.774Z,28.10
2018-07-04T07:43:42.623Z,28.40
2018-07-04T07:46:28.970Z,28.60
2018-07-04T07:49:17.425Z,28.80
2018-07-04T07:52:04.442Z,29.10
2018-07-04T07:54:51.295Z,29.60
2018-07-04T07:57:37.866Z,29.70
2018-07-04T08:00:24.552Z,29.80
2018-07-04T08:03:11.678Z,29.90
2018-07-04T08:06:09.973Z,30.10
2018-07-04T08:08:56.515Z,30.10
2018-07-04T08:11:43.006Z,30.10
2018-07-04T08:14:29.595Z,30.00
2018-07-04T08:17:16.784Z,30.00
2018-07-04T08:20:03.496Z,29.90
2018-07-04T08:22:50.286Z,29.80
2018-07-04T08:25:43.147Z,29.70
2018-07-04T08:28:30.192Z,29.50
2018-07-04T08:31:16.893Z,29.50
2018-07-04T08:34:03.994Z,29.80
2018-07-04T08:36:50.904Z,30.60
2018-07-04T08:39:37.608Z,31.90
2018-07-04T08:42:24.254Z,33.00
2018-07-04T08:45:10.818Z,33.60
2018-07-04T08:47:57.573Z,34.80
2018-07-04T08:50:44.224Z,35.90
2018-07-04T08:53:30.766Z,36.30
2018-07-04T08:56:17.289Z,36.20
2018-07-04T08:59:03.811Z,35.70
2018-07-04T09:01:50.382Z,35.20
2018-07-04T09:04:37.029Z,34.80
2018-07-04T09:07:23.687Z,34.70
2018-07-04T09:10:10.233Z,34.90
2018-07-04T09:12:57.056Z,35.40
2018-07-04T09:15:43.750Z,36.30
2018-07-04T09:18:30.505Z,36.90
2018-07-04T09:21:16.937Z,37.00
2018-07-04T09:24:03.398Z,37.10
2018-07-04T09:26:50.091Z,37.40
2018-07-04T09:29:36.437Z,37.60
2018-07-04T09:32:22.981Z,37.30
2018-07-04T09:35:09.542Z,36.70
2018-07-04T09:37:56.129Z,36.10
2018-07-04T09:40:42.630Z,36.00
2018-07-04T09:43:29.118Z,36.20
2018-07-04T09:46:16.575Z,36.40
2018-07-04T09:49:03.278Z,36.70
2018-07-04T09:51:50.019Z,36.80
2018-07-04T09:54:36.713Z,36.30
2018-07-04T09:57:23.426Z,35.50
2018-07-04T10:00:10.042Z,34.80
2018-07-04T10:02:56.770Z,34.30
2018-07-04T10:05:43.703Z,33.80
2018-07-04T10:08:30.278Z,33.50
2018-07-04T10:11:16.966Z,33.50
2018-07-04T10:14:04.691Z,33.70
2018-07-04T10:16:51.196Z,34.30
2018-07-04T10:19:37.968Z,34.90
2018-07-04T10:22:24.510Z,35.20
2018-07-04T10:25:11.191Z,34.90
2018-07-04T10:27:57.774Z,34.30
2018-07-04T10:30:44.390Z,33.70
2018-07-04T10:33:31.173Z,33.10
2018-07-04T10:36:17.800Z,32.60
2018-07-04T10:39:05.121Z,32.10
2018-07-04T10:41:51.767Z,31.90
2018-07-04T10:44:38.276Z,31.90
2018-07-04T10:47:24.717Z,32.20
2018-07-04T10:50:11.373Z,32.40
2018-07-04T10:52:57.921Z,32.40
2018-07-04T10:55:44.525Z,32.30
2018-07-04T10:58:31.196Z,32.30
2018-07-04T11:01:17.722Z,32.20
2018-07-04T11:04:04.325Z,31.90
2018-07-04T11:06:51.000Z,31.70
2018-07-04T11:09:37.428Z,31.60
2018-07-04T11:12:24.276Z,31.50
2018-07-04T11:15:10.938Z,31.30
2018-07-04T11:17:58.180Z,31.20
2018-07-04T11:20:44.774Z,31.00
2018-07-04T11:23:31.957Z,30.90
2018-07-04T11:28:59.109Z,31.00
2018-07-04T11:31:45.689Z,31.00
2018-07-04T11:34:32.973Z,30.90
2018-07-04T11:37:23.555Z,30.80
2018-07-04T11:40:11.850Z,30.60
2018-07-04T11:42:58.597Z,30.50
2018-07-04T11:45:45.377Z,30.50
2018-07-04T11:48:19.456Z,30.50
2018-07-04T11:50:47.494Z,30.60
2018-07-04T11:53:15.585Z,30.60
2018-07-04T11:55:43.635Z,30.50
2018-07-04T11:58:11.675Z,30.30
2018-07-04T12:00:39.665Z,30.40
2018-07-04T12:03:18.485Z,30.30
2018-07-04T12:05:58.934Z,30.20
2018-07-04T12:08:33.118Z,30.20
2018-07-04T12:11:02.566Z,30.20
2018-07-04T12:13:30.546Z,30.10
2018-07-04T12:15:58.854Z,30.00
2018-07-04T12:18:27.849Z,29.90
2018-07-04T12:20:56.034Z,29.90
2018-07-04T12:23:24.033Z,29.70
2018-07-04T12:25:52.090Z,29.70
2018-07-04T12:28:20.141Z,29.70
2018-07-04T12:30:48.111Z,29.50
2018-07-04T12:33:16.494Z,29.40
2018-07-04T12:35:44.485Z,29.20
2018-07-04T12:38:12.538Z,29.00
2018-07-04T12:40:40.702Z,28.70
2018-07-04T12:43:08.683Z,28.50
2018-07-04T12:45:39.547Z,28.40
2018-07-04T12:48:05.051Z,28.20
2018-07-04T12:50:33.716Z,28.00
2018-07-04T12:53:01.728Z,27.80
2018-07-04T12:55:43.565Z,27.60
2018-07-04T12:58:30.096Z,27.60
2018-07-04T13:01:16.943Z,27.50
2018-07-04T13:04:03.358Z,27.60
2018-07-04T13:06:50.053Z,27.70
2018-07-04T13:09:37.589Z,27.80
2018-07-04T13:12:24.133Z,28.00
2018-07-04T13:15:10.750Z,28.20
2018-07-04T13:17:57.299Z,28.30
2018-07-04T13:20:43.715Z,28.40
2018-07-04T13:23:30.329Z,28.60
2018-07-04T13:26:16.864Z,28.70
2018-07-04T13:29:03.810Z,28.70
2018-07-04T13:31:50.397Z,28.60
2018-07-04T13:34:36.991Z,28.50
2018-07-04T13:37:23.749Z,28.60
2018-07-04T13:40:11.327Z,28.50
2018-07-04T13:42:57.734Z,28.70
2018-07-04T13:45:44.491Z,28.80
2018-07-04T13:48:30.993Z,28.90
2018-07-04T13:51:17.636Z,29.10
2018-07-04T13:54:04.104Z,29.20
2018-07-04T13:56:50.785Z,29.20
2018-07-04T13:59:37.241Z,29.30
2018-07-04T14:02:24.080Z,29.40
2018-07-04T14:05:12.260Z,29.40
2018-07-04T14:07:59.016Z,29.40
2018-07-04T14:10:45.598Z,29.40
2018-07-04T14:13:32.428Z,29.40
2018-07-04T14:16:19.152Z,29.40
2018-07-04T14:19:06.394Z,29.20
2018-07-04T14:21:53.096Z,29.20
2018-07-04T14:24:39.912Z,28.90
2018-07-04T14:27:26.409Z,28.90
2018-07-04T14:30:14.673Z,28.80
2018-07-04T14:33:01.531Z,28.60
2018-07-04T14:35:48.310Z,28.40
2018-07-04T14:38:34.861Z,28.30
2018-07-04T14:41:21.358Z,28.20
2018-07-04T14:44:07.917Z,28.10
2018-07-04T14:46:54.784Z,28.00
2018-07-04T14:49:41.500Z,27.90
2018-07-04T14:52:27.979Z,27.90
2018-07-04T14:55:14.288Z,27.90
2018-07-04T14:58:01.432Z,27.90
2018-07-04T15:00:47.952Z,27.80
2018-07-04T15:03:35.055Z,27.70
2018-07-04T15:06:21.654Z,27.60
2018-07-04T15:09:08.315Z,27.50
2018-07-04T15:11:54.999Z,27.60
2018-07-04T15:14:41.505Z,27.50
2018-07-04T15:17:28.303Z,27.50
2018-07-04T15:20:17.159Z,27.20
2018-07-04T15:23:04.370Z,27.40
2018-07-04T15:25:50.872Z,27.40
2018-07-04T15:28:37.352Z,27.50
2018-07-04T15:31:24.121Z,27.40
2018-07-04T15:34:10.681Z,27.60
2018-07-04T15:36:57.130Z,27.40
2018-07-04T15:39:43.684Z,27.30
2018-07-04T15:42:30.399Z,27.30
2018-07-04T15:45:17.011Z,27.30
2018-07-04T15:48:03.819Z,27.20
2018-07-04T15:50:50.324Z,27.20
2018-07-04T15:53:36.890Z,27.40
2018-07-04T15:56:23.431Z,27.40
2018-07-04T15:59:10.329Z,27.40
2018-07-04T16:01:56.950Z,27.40
2018-07-04T16:04:43.850Z,27.40
2018-07-04T16:07:30.813Z,27.40
2018-07-04T16:10:17.390Z,27.40
2018-07-04T16:13:03.913Z,27.50
2018-07-04T16:15:50.894Z,27.40
2018-07-04T16:18:37.810Z,27.30
2018-07-04T16:21:24.579Z,27.30
2018-07-04T16:24:11.201Z,27.30
2018-07-04T16:26:57.867Z,27.20
2018-07-04T16:29:44.475Z,27.10
2018-07-04T16:32:31.045Z,27.00
2018-07-04T16:35:17.650Z,27.00
2018-07-04T16:38:04.303Z,27.00
2018-07-04T16:40:50.915Z,26.90
2018-07-04T16:43:37.639Z,26.90
2018-07-04T16:46:24.288Z,26.90
2018-07-04T16:49:11.168Z,26.80
2018-07-04T16:51:57.783Z,26.80
2018-07-04T16:54:44.430Z,26.80
2018-07-04T16:57:31.020Z,26.80
2018-07-04T17:00:17.726Z,26.80
2018-07-04T17:03:04.609Z,26.70
2018-07-04T17:05:51.189Z,26.70
2018-07-04T17:08:38.005Z,26.70
2018-07-04T17:11:24.820Z,26.70
2018-07-04T17:14:12.347Z,26.60
2018-07-04T17:16:58.993Z,26.50
2018-07-04T17:19:45.749Z,26.50
2018-07-04T17:22:32.407Z,26.50
2018-07-04T17:25:19.024Z,26.40
2018-07-04T17:28:05.554Z,26.40
2018-07-04T17:30:52.114Z,26.50
2018-07-04T17:33:38.605Z,26.40
2018-07-04T17:36:25.348Z,26.30
2018-07-04T17:39:11.882Z,26.30
2018-07-04T17:41:58.552Z,26.20
2018-07-04T17:44:45.350Z,26.30
2018-07-04T17:47:31.968Z,26.20
2018-07-04T17:50:18.593Z,26.10
2018-07-04T17:53:05.435Z,26.00
2018-07-04T17:55:52.116Z,25.90
2018-07-04T17:58:38.853Z,25.90
2018-07-04T18:01:25.674Z,25.90
2018-07-04T18:04:12.862Z,25.70
2018-07-04T18:06:59.431Z,25.70
2018-07-04T18:09:47.059Z,25.70
2018-07-04T18:12:33.529Z,25.60
2018-07-04T18:15:20.166Z,25.50
2018-07-04T18:18:07.425Z,25.50
2018-07-04T18:20:54.418Z,25.50
2018-07-04T18:23:41.319Z,25.50
2018-07-04T18:26:27.819Z,25.40
2018-07-04T18:29:14.630Z,25.40
2018-07-04T18:32:01.161Z,25.40
2018-07-04T18:34:47.964Z,25.30
2018-07-04T18:37:34.473Z,25.30
2018-07-04T18:40:21.181Z,25.30
2018-07-04T18:43:07.669Z,25.10
2018-07-04T18:45:54.504Z,25.20
2018-07-04T18:48:41.086Z,25.10
2018-07-04T18:51:27.698Z,25.10
2018-07-04T18:54:14.298Z,25.10
2018-07-04T18:57:00.846Z,24.90
2018-07-04T18:59:47.400Z,24.90
2018-07-04T19:02:34.229Z,24.90
2018-07-04T19:05:20.849Z,24.90
2018-07-04T19:08:07.540Z,24.80
2018-07-04T19:10:54.209Z,24.80
2018-07-04T19:13:40.901Z,24.70
2018-07-04T19:16:27.496Z,24.70
2018-07-04T19:19:14.092Z,24.70
2018-07-04T19:22:00.720Z,24.80
2018-07-04T19:24:48.709Z,24.80
2018-07-04T19:27:35.412Z,24.50
2018-07-04T19:30:21.970Z,24.60
2018-07-04T19:33:10.766Z,24.60
2018-07-04T19:35:57.433Z,24.50
2018-07-04T19:38:44.042Z,24.50
2018-07-04T19:41:31.084Z,24.50
2018-07-04T19:44:17.687Z,24.40
2018-07-04T19:47:04.402Z,24.40
2018-07-04T19:49:51.086Z,24.40
2018-07-04T19:52:38.018Z,24.40
2018-07-04T19:55:25.058Z,24.30
2018-07-04T19:58:11.628Z,24.30
2018-07-04T20:00:58.312Z,24.20
2018-07-04T20:03:44.986Z,24.20
2018-07-04T20:06:31.550Z,24.20
2018-07-04T20:09:18.240Z,24.20
2018-07-04T20:12:04.703Z,24.10
2018-07-04T20:14:51.300Z,24.10
2018-07-04T20:17:38.017Z,24.10
2018-07-04T20:20:24.722Z,24.00
2018-07-04T20:23:11.549Z,24.00
2018-07-04T20:25:58.354Z,23.90
2018-07-04T20:28:44.955Z,23.90
2018-07-04T20:31:31.567Z,23.80
2018-07-04T20:34:18.173Z,23.80
2018-07-04T20:37:05.745Z,23.70
2018-07-04T20:39:52.284Z,23.70
2018-07-04T20:42:39.020Z,23.70
2018-07-04T20:45:25.814Z,23.60
2018-07-04T20:48:12.527Z,23.60
2018-07-04T20:51:04.288Z,23.50
2018-07-04T20:53:50.933Z,23.50
2018-07-04T20:56:37.651Z,23.60
2018-07-04T20:59:24.787Z,23.40
2018-07-04T21:02:11.361Z,23.30
2018-07-04T21:04:58.985Z,23.30
2018-07-04T21:07:45.876Z,23.30
2018-07-04T21:10:32.668Z,23.30
2018-07-04T21:13:19.436Z,23.20
2018-07-04T21:16:05.911Z,23.20
2018-07-04T21:18:53.018Z,23.10
2018-07-04T21:21:40.203Z,23.10
2018-07-04T21:24:31.237Z,23.00
2018-07-04T21:27:17.965Z,23.00
2018-07-04T21:30:04.832Z,22.90
2018-07-04T21:32:51.577Z,22.90
2018-07-04T21:35:38.135Z,22.90
2018-07-04T21:38:24.890Z,22.90
2018-07-04T21:41:11.654Z,22.80
2018-07-04T21:43:58.448Z,22.80
2018-07-04T21:46:45.305Z,22.70
2018-07-04T21:49:31.941Z,22.70
2018-07-04T21:52:18.612Z,22.80
2018-07-04T21:55:05.339Z,22.70
2018-07-04T21:57:52.291Z,22.60
2018-07-04T22:00:39.007Z,22.60
2018-07-04T22:03:25.722Z,22.60
2018-07-04T22:06:12.334Z,22.60
2018-07-04T22:08:59.198Z,22.60
2018-07-04T22:11:46.271Z,22.60
2018-07-04T22:14:32.916Z,22.60
2018-07-04T22:17:26.472Z,22.60
2018-07-04T22:20:13.214Z,22.50
2018-07-04T22:22:59.921Z,22.50
2018-07-04T22:25:46.569Z,22.40
2018-07-04T22:28:33.220Z,22.40
2018-07-04T22:31:19.865Z,22.30
2018-07-04T22:34:06.456Z,22.30
2018-07-04T22:36:55.368Z,22.30
2018-07-04T22:39:42.005Z,22.20
2018-07-04T22:42:28.762Z,22.10
2018-07-04T22:45:15.486Z,22.00
2018-07-04T22:48:02.262Z,21.90
2018-07-04T22:50:48.881Z,22.00
2018-07-04T22:53:35.604Z,22.00
2018-07-04T22:56:22.161Z,22.00
2018-07-04T22:59:08.890Z,21.90
2018-07-04T23:01:55.483Z,21.90
2018-07-04T23:04:42.270Z,21.90
2018-07-04T23:07:29.076Z,21.90
2018-07-04T23:10:15.725Z,21.80
2018-07-04T23:13:02.410Z,21.70
2018-07-04T23:15:48.902Z,21.70
2018-07-04T23:18:36.433Z,21.70
2018-07-04T23:21:23.257Z,21.60
2018-07-04T23:24:09.990Z,21.60
2018-07-04T23:26:57.504Z,21.50
2018-07-04T23:29:44.029Z,21.40
2018-07-04T23:32:30.963Z,21.40
2018-07-04T23:35:17.459Z,21.20
2018-07-04T23:38:04.205Z,21.20
2018-07-04T23:40:50.971Z,21.10
2018-07-04T23:43:37.708Z,21.10
2018-07-04T23:46:24.471Z,21.10
2018-07-04T23:49:11.126Z,21.10
2018-07-04T23:51:57.764Z,21.00
2018-07-04T23:54:44.435Z,21.00
2018-07-04T23:57:31.246Z,20.90
